Exceptional Flight Instruction

Our Team

Safe Aircraft

Our Rentals

Outstanding Customer Service

Contact Us

AeroCamp

AeroCamp Times (M-F 9AM-3PM)
June 20-24, 2016 – FULL
July 11-15, 2016 – OPEN
July 25-29, 2016 – OPEN
$599/wk per Cadet (Roster size limited)

AeroCamp 2.0 Times (M-T 9AM-3PM)
June 27-30, 2016 – FULL
July 11-15, 2016 - FULL
August 8-11, 2016 – FULL
$699/wk per Cadet (Roster size limited)

AeroCamp 3.0 Times (M-W – INCLUDES KITTY HAWK!)
June 13-15, 2016 – FULL
July 6-8, 2016 – OPEN
$799/wk per Cadet (Roster size limited)

About Us

Triad Aviation Academy, LLC


1030 PTI Drive
Greensboro, NC 27409

Phone: (336) 369-2804
Fax: (336) 664-6942

Weather

Available data for KGSO from the past 2 hours
GREENSBORO, NC
Metar
KGSO 291354Z 05004KT 10SM BKN250 27/17 A2999 RMK AO2 SLP145 T02720167

13:54 UTC

Wind: 50° 4kt

Visibility: 10 SM

Sky: BKN 25000 ft

Temp: 27 deg C / 80.6 deg F

Dewpoint: 17 deg C / 62.6 deg F

Pressure: 29.99 inHg

TAF
KGSO 291122Z 2912/3012 24004KT P6SM BKN250